sensor_id;sensor_type;location;lat;lon;timestamp;P1;durP1;ratioP1;P2;durP2;ratioP2
77738;SDS011;66904;59.926;30.404;2023-03-14T00:04:03;1.02;;;0.40;;
77738;SDS011;66904;59.926;30.404;2023-03-14T00:14:47;0.95;;;0.30;;
77738;SDS011;66904;59.926;30.404;2023-03-14T00:20:15;0.82;;;0.28;;
77738;SDS011;66904;59.926;30.404;2023-03-14T00:25:46;0.60;;;0.20;;
77738;SDS011;66904;59.926;30.404;2023-03-14T00:31:30;0.28;;;0.13;;
77738;SDS011;66904;59.926;30.404;2023-03-14T00:36:35;0.60;;;0.28;;
77738;SDS011;66904;59.926;30.404;2023-03-14T00:41:36;0.35;;;0.20;;
77738;SDS011;66904;59.926;30.404;2023-03-14T00:46:36;0.73;;;0.38;;
77738;SDS011;66904;59.926;30.404;2023-03-14T00:51:52;0.60;;;0.30;;
77738;SDS011;66904;59.926;30.404;2023-03-14T00:57:23;0.70;;;0.20;;
77738;SDS011;66904;59.926;30.404;2023-03-14T01:14:10;0.77;;;0.20;;
77738;SDS011;66904;59.926;30.404;2023-03-14T01:19:44;0.30;;;0.20;;
77738;SDS011;66904;59.926;30.404;2023-03-14T01:25:25;0.68;;;0.30;;
77738;SDS011;66904;59.926;30.404;2023-03-14T01:30:26;0.15;;;0.10;;
77738;SDS011;66904;59.926;30.404;2023-03-14T02:10:17;0.80;;;0.40;;
77738;SDS011;66904;59.926;30.404;2023-03-14T02:15:40;0.55;;;0.25;;
77738;SDS011;66904;59.926;30.404;2023-03-14T02:26:43;0.25;;;0.10;;
77738;SDS011;66904;59.926;30.404;2023-03-14T02:32:32;0.50;;;0.20;;
77738;SDS011;66904;59.926;30.404;2023-03-14T02:38:10;1.02;;;0.20;;
77738;SDS011;66904;59.926;30.404;2023-03-14T02:43:18;0.32;;;0.17;;
77738;SDS011;66904;59.926;30.404;2023-03-14T02:48:28;0.52;;;0.15;;
77738;SDS011;66904;59.926;30.404;2023-03-14T02:53:55;1.00;;;0.35;;
77738;SDS011;66904;59.926;30.404;2023-03-14T02:59:48;0.22;;;0.10;;
77738;SDS011;66904;59.926;30.404;2023-03-14T03:16:37;0.43;;;0.28;;
77738;SDS011;66904;59.926;30.404;2023-03-14T03:21:56;0.28;;;0.15;;
77738;SDS011;66904;59.926;30.404;2023-03-14T03:32:59;0.35;;;0.20;;
77738;SDS011;66904;59.926;30.404;2023-03-14T03:43:36;0.28;;;0.20;;
77738;SDS011;66904;59.926;30.404;2023-03-14T03:48:37;1.02;;;0.40;;
77738;SDS011;66904;59.926;30.404;2023-03-14T03:53:38;0.75;;;0.10;;
77738;SDS011;66904;59.926;30.404;2023-03-14T03:58:38;0.15;;;0.10;;
77738;SDS011;66904;59.926;30.404;2023-03-14T04:03:39;0.95;;;0.17;;
77738;SDS011;66904;59.926;30.404;2023-03-14T04:08:40;0.75;;;0.20;;
77738;SDS011;66904;59.926;30.404;2023-03-14T04:13:41;0.28;;;0.10;;
77738;SDS011;66904;59.926;30.404;2023-03-14T04:18:41;0.30;;;0.20;;
77738;SDS011;66904;59.926;30.404;2023-03-14T04:23:42;0.45;;;0.20;;
77738;SDS011;66904;59.926;30.404;2023-03-14T04:28:43;0.40;;;0.10;;
77738;SDS011;66904;59.926;30.404;2023-03-14T04:33:43;0.80;;;0.30;;
77738;SDS011;66904;59.926;30.404;2023-03-14T04:38:44;0.60;;;0.20;;
77738;SDS011;66904;59.926;30.404;2023-03-14T04:43:45;1.05;;;0.20;;
77738;SDS011;66904;59.926;30.404;2023-03-14T04:48:45;2.88;;;0.13;;
77738;SDS011;66904;59.926;30.404;2023-03-14T04:53:46;0.60;;;0.20;;
77738;SDS011;66904;59.926;30.404;2023-03-14T04:58:46;13.25;;;0.55;;
77738;SDS011;66904;59.926;30.404;2023-03-14T05:03:47;0.25;;;0.10;;
77738;SDS011;66904;59.926;30.404;2023-03-14T05:08:47;0.65;;;0.20;;
77738;SDS011;66904;59.926;30.404;2023-03-14T05:13:48;1.90;;;0.30;;
77738;SDS011;66904;59.926;30.404;2023-03-14T05:18:48;0.20;;;0.10;;
77738;SDS011;66904;59.926;30.404;2023-03-14T05:23:49;0.40;;;0.10;;
77738;SDS011;66904;59.926;30.404;2023-03-14T05:28:49;0.45;;;0.30;;
77738;SDS011;66904;59.926;30.404;2023-03-14T05:33:50;0.00;;;0.00;;
77738;SDS011;66904;59.926;30.404;2023-03-14T05:38:50;3.08;;;0.35;;
77738;SDS011;66904;59.926;30.404;2023-03-14T05:43:51;5.23;;;0.40;;
77738;SDS011;66904;59.926;30.404;2023-03-14T05:48:51;0.35;;;0.13;;
77738;SDS011;66904;59.926;30.404;2023-03-14T05:53:52;0.22;;;0.20;;
77738;SDS011;66904;59.926;30.404;2023-03-14T05:58:52;0.13;;;0.05;;
77738;SDS011;66904;59.926;30.404;2023-03-14T06:03:53;1.17;;;0.33;;
77738;SDS011;66904;59.926;30.404;2023-03-14T06:08:53;1.13;;;0.30;;
77738;SDS011;66904;59.926;30.404;2023-03-14T06:13:54;0.85;;;0.20;;
77738;SDS011;66904;59.926;30.404;2023-03-14T06:18:54;0.30;;;0.10;;
77738;SDS011;66904;59.926;30.404;2023-03-14T06:23:55;0.40;;;0.20;;
77738;SDS011;66904;59.926;30.404;2023-03-14T06:28:56;0.30;;;0.20;;
77738;SDS011;66904;59.926;30.404;2023-03-14T06:33:56;1.27;;;0.10;;
77738;SDS011;66904;59.926;30.404;2023-03-14T06:38:57;0.20;;;0.10;;
77738;SDS011;66904;59.926;30.404;2023-03-14T06:43:57;0.68;;;0.10;;
77738;SDS011;66904;59.926;30.404;2023-03-14T06:48:58;0.65;;;0.30;;
77738;SDS011;66904;59.926;30.404;2023-03-14T06:53:59;0.73;;;0.13;;
77738;SDS011;66904;59.926;30.404;2023-03-14T06:58:59;0.40;;;0.20;;
77738;SDS011;66904;59.926;30.404;2023-03-14T07:04:00;0.20;;;0.10;;
77738;SDS011;66904;59.926;30.404;2023-03-14T07:09:01;0.93;;;0.22;;
77738;SDS011;66904;59.926;30.404;2023-03-14T07:14:02;0.60;;;0.20;;
77738;SDS011;66904;59.926;30.404;2023-03-14T07:19:03;0.20;;;0.10;;
77738;SDS011;66904;59.926;30.404;2023-03-14T07:24:04;0.52;;;0.20;;
77738;SDS011;66904;59.926;30.404;2023-03-14T07:29:05;0.65;;;0.25;;
77738;SDS011;66904;59.926;30.404;2023-03-14T07:34:06;0.73;;;0.20;;
77738;SDS011;66904;59.926;30.404;2023-03-14T07:39:06;0.50;;;0.30;;
77738;SDS011;66904;59.926;30.404;2023-03-14T07:44:07;0.15;;;0.10;;
77738;SDS011;66904;59.926;30.404;2023-03-14T07:49:07;0.10;;;0.10;;
77738;SDS011;66904;59.926;30.404;2023-03-14T07:54:08;0.40;;;0.20;;
77738;SDS011;66904;59.926;30.404;2023-03-14T07:59:08;0.40;;;0.20;;
77738;SDS011;66904;59.926;30.404;2023-03-14T08:04:09;0.70;;;0.20;;
77738;SDS011;66904;59.926;30.404;2023-03-14T08:09:10;0.32;;;0.20;;
77738;SDS011;66904;59.926;30.404;2023-03-14T08:14:10;0.95;;;0.30;;
77738;SDS011;66904;59.926;30.404;2023-03-14T08:19:11;0.30;;;0.10;;
77738;SDS011;66904;59.926;30.404;2023-03-14T08:24:11;0.20;;;0.10;;
77738;SDS011;66904;59.926;30.404;2023-03-14T08:29:12;1.00;;;0.45;;
77738;SDS011;66904;59.926;30.404;2023-03-14T08:34:12;0.82;;;0.40;;
77738;SDS011;66904;59.926;30.404;2023-03-14T08:39:13;0.47;;;0.20;;
77738;SDS011;66904;59.926;30.404;2023-03-14T08:44:13;0.52;;;0.30;;
77738;SDS011;66904;59.926;30.404;2023-03-14T08:49:14;0.20;;;0.10;;
77738;SDS011;66904;59.926;30.404;2023-03-14T08:54:14;0.75;;;0.30;;
77738;SDS011;66904;59.926;30.404;2023-03-14T08:59:15;0.30;;;0.10;;
77738;SDS011;66904;59.926;30.404;2023-03-14T09:04:16;0.75;;;0.40;;
77738;SDS011;66904;59.926;30.404;2023-03-14T09:09:16;1.08;;;0.60;;
77738;SDS011;66904;59.926;30.404;2023-03-14T09:14:17;0.50;;;0.20;;
77738;SDS011;66904;59.926;30.404;2023-03-14T09:19:17;0.77;;;0.30;;
77738;SDS011;66904;59.926;30.404;2023-03-14T09:24:27;1.13;;;0.35;;
77738;SDS011;66904;59.926;30.404;2023-03-14T09:29:27;0.98;;;0.30;;
77738;SDS011;66904;59.926;30.404;2023-03-14T09:34:28;1.17;;;0.30;;
77738;SDS011;66904;59.926;30.404;2023-03-14T09:39:28;1.00;;;0.25;;
77738;SDS011;66904;59.926;30.404;2023-03-14T09:44:30;0.30;;;0.20;;
77738;SDS011;66904;59.926;30.404;2023-03-14T09:49:44;0.73;;;0.35;;
77738;SDS011;66904;59.926;30.404;2023-03-14T09:54:49;0.80;;;0.40;;
77738;SDS011;66904;59.926;30.404;2023-03-14T09:59:53;0.82;;;0.32;;
77738;SDS011;66904;59.926;30.404;2023-03-14T10:04:57;0.73;;;0.30;;
77738;SDS011;66904;59.926;30.404;2023-03-14T10:09:58;2.42;;;0.43;;
77738;SDS011;66904;59.926;30.404;2023-03-14T10:15:04;0.90;;;0.40;;
77738;SDS011;66904;59.926;30.404;2023-03-14T10:25:44;0.45;;;0.30;;
77738;SDS011;66904;59.926;30.404;2023-03-14T10:30:58;0.40;;;0.15;;
77738;SDS011;66904;59.926;30.404;2023-03-14T10:41:01;1.65;;;0.50;;
77738;SDS011;66904;59.926;30.404;2023-03-14T10:46:10;0.98;;;0.40;;
77738;SDS011;66904;59.926;30.404;2023-03-14T10:56:20;1.53;;;0.40;;
77738;SDS011;66904;59.926;30.404;2023-03-14T11:01:26;2.38;;;0.45;;
77738;SDS011;66904;59.926;30.404;2023-03-14T11:11:47;1.73;;;0.55;;
77738;SDS011;66904;59.926;30.404;2023-03-14T11:27:41;1.05;;;0.47;;
77738;SDS011;66904;59.926;30.404;2023-03-14T11:38:11;1.00;;;0.45;;
77738;SDS011;66904;59.926;30.404;2023-03-14T11:43:29;1.63;;;0.60;;
77738;SDS011;66904;59.926;30.404;2023-03-14T12:10:10;0.63;;;0.30;;
77738;SDS011;66904;59.926;30.404;2023-03-14T12:15:18;1.23;;;0.57;;
77738;SDS011;66904;59.926;30.404;2023-03-14T12:20:24;1.77;;;0.50;;
77738;SDS011;66904;59.926;30.404;2023-03-14T12:25:27;1.73;;;0.77;;
77738;SDS011;66904;59.926;30.404;2023-03-14T12:30:31;0.75;;;0.47;;
77738;SDS011;66904;59.926;30.404;2023-03-14T12:35:42;2.28;;;0.60;;
77738;SDS011;66904;59.926;30.404;2023-03-14T12:56:23;1.20;;;0.60;;
77738;SDS011;66904;59.926;30.404;2023-03-14T13:02:19;0.70;;;0.38;;
77738;SDS011;66904;59.926;30.404;2023-03-14T13:13:03;1.17;;;0.50;;
77738;SDS011;66904;59.926;30.404;2023-03-14T13:23:34;2.97;;;0.90;;
77738;SDS011;66904;59.926;30.404;2023-03-14T13:28:37;1.48;;;0.70;;
77738;SDS011;66904;59.926;30.404;2023-03-14T13:33:37;1.38;;;0.60;;
77738;SDS011;66904;59.926;30.404;2023-03-14T13:38:40;1.85;;;0.47;;
77738;SDS011;66904;59.926;30.404;2023-03-14T13:43:43;4.80;;;0.88;;
77738;SDS011;66904;59.926;30.404;2023-03-14T13:48:45;2.80;;;1.13;;
77738;SDS011;66904;59.926;30.404;2023-03-14T13:53:49;2.35;;;0.70;;
77738;SDS011;66904;59.926;30.404;2023-03-14T13:58:51;7.95;;;0.90;;
77738;SDS011;66904;59.926;30.404;2023-03-14T14:03:53;2.28;;;0.73;;
77738;SDS011;66904;59.926;30.404;2023-03-14T14:08:57;3.15;;;0.70;;
77738;SDS011;66904;59.926;30.404;2023-03-14T14:14:00;1.20;;;0.73;;
77738;SDS011;66904;59.926;30.404;2023-03-14T14:19:01;4.15;;;0.98;;
77738;SDS011;66904;59.926;30.404;2023-03-14T14:24:03;1.10;;;0.63;;
77738;SDS011;66904;59.926;30.404;2023-03-14T14:29:05;2.40;;;0.70;;
77738;SDS011;66904;59.926;30.404;2023-03-14T14:34:17;1.30;;;0.60;;
77738;SDS011;66904;59.926;30.404;2023-03-14T14:39:27;2.38;;;0.80;;
77738;SDS011;66904;59.926;30.404;2023-03-14T14:44:49;1.60;;;0.73;;
77738;SDS011;66904;59.926;30.404;2023-03-14T14:50:28;1.23;;;0.75;;
77738;SDS011;66904;59.926;30.404;2023-03-14T14:55:40;1.10;;;0.70;;
77738;SDS011;66904;59.926;30.404;2023-03-14T15:01:20;1.27;;;0.70;;
77738;SDS011;66904;59.926;30.404;2023-03-14T15:06:23;1.17;;;0.60;;
77738;SDS011;66904;59.926;30.404;2023-03-14T15:11:30;1.50;;;0.52;;
77738;SDS011;66904;59.926;30.404;2023-03-14T15:17:18;1.48;;;0.68;;
77738;SDS011;66904;59.926;30.404;2023-03-14T15:22:37;1.02;;;0.60;;
77738;SDS011;66904;59.926;30.404;2023-03-14T15:27:37;1.23;;;0.60;;
77738;SDS011;66904;59.926;30.404;2023-03-14T15:32:42;1.60;;;0.82;;
77738;SDS011;66904;59.926;30.404;2023-03-14T15:37:43;1.98;;;0.90;;
77738;SDS011;66904;59.926;30.404;2023-03-14T15:42:44;1.83;;;0.77;;
77738;SDS011;66904;59.926;30.404;2023-03-14T15:47:45;2.58;;;0.57;;
77738;SDS011;66904;59.926;30.404;2023-03-14T15:52:45;1.02;;;0.52;;
77738;SDS011;66904;59.926;30.404;2023-03-14T15:57:46;1.60;;;0.50;;
77738;SDS011;66904;59.926;30.404;2023-03-14T16:02:47;3.42;;;0.82;;
77738;SDS011;66904;59.926;30.404;2023-03-14T16:07:48;1.77;;;0.90;;
77738;SDS011;66904;59.926;30.404;2023-03-14T16:12:49;2.38;;;0.63;;
77738;SDS011;66904;59.926;30.404;2023-03-14T16:17:53;2.00;;;0.80;;
77738;SDS011;66904;59.926;30.404;2023-03-14T16:22:53;1.77;;;0.98;;
77738;SDS011;66904;59.926;30.404;2023-03-14T16:27:54;3.33;;;1.02;;
77738;SDS011;66904;59.926;30.404;2023-03-14T16:32:56;1.70;;;0.80;;
77738;SDS011;66904;59.926;30.404;2023-03-14T16:38:00;3.78;;;1.00;;
77738;SDS011;66904;59.926;30.404;2023-03-14T16:43:01;1.67;;;0.80;;
77738;SDS011;66904;59.926;30.404;2023-03-14T16:48:03;2.00;;;0.82;;
77738;SDS011;66904;59.926;30.404;2023-03-14T16:53:04;2.70;;;0.73;;
77738;SDS011;66904;59.926;30.404;2023-03-14T16:58:04;3.40;;;0.88;;
77738;SDS011;66904;59.926;30.404;2023-03-14T17:03:05;2.00;;;1.03;;
77738;SDS011;66904;59.926;30.404;2023-03-14T17:08:05;1.90;;;0.80;;
77738;SDS011;66904;59.926;30.404;2023-03-14T17:13:06;3.05;;;1.52;;
77738;SDS011;66904;59.926;30.404;2023-03-14T17:18:06;2.97;;;1.58;;
77738;SDS011;66904;59.926;30.404;2023-03-14T17:23:07;1.75;;;0.90;;
77738;SDS011;66904;59.926;30.404;2023-03-14T17:28:08;2.63;;;1.02;;
77738;SDS011;66904;59.926;30.404;2023-03-14T17:33:09;1.50;;;1.00;;
77738;SDS011;66904;59.926;30.404;2023-03-14T17:38:10;3.38;;;1.10;;
77738;SDS011;66904;59.926;30.404;2023-03-14T17:43:10;2.72;;;0.93;;
77738;SDS011;66904;59.926;30.404;2023-03-14T17:48:11;3.53;;;1.10;;
77738;SDS011;66904;59.926;30.404;2023-03-14T17:53:12;1.88;;;1.10;;
77738;SDS011;66904;59.926;30.404;2023-03-14T17:58:12;2.83;;;1.40;;
77738;SDS011;66904;59.926;30.404;2023-03-14T18:03:13;2.75;;;1.23;;
77738;SDS011;66904;59.926;30.404;2023-03-14T18:08:15;1.80;;;1.08;;
77738;SDS011;66904;59.926;30.404;2023-03-14T18:13:15;2.95;;;1.55;;
77738;SDS011;66904;59.926;30.404;2023-03-14T18:18:16;3.08;;;1.45;;
77738;SDS011;66904;59.926;30.404;2023-03-14T18:23:16;2.05;;;1.20;;
77738;SDS011;66904;59.926;30.404;2023-03-14T18:28:17;2.95;;;1.70;;
77738;SDS011;66904;59.926;30.404;2023-03-14T18:33:19;2.70;;;1.48;;
77738;SDS011;66904;59.926;30.404;2023-03-14T18:38:23;4.65;;;2.08;;
77738;SDS011;66904;59.926;30.404;2023-03-14T18:43:24;4.32;;;2.03;;
77738;SDS011;66904;59.926;30.404;2023-03-14T18:48:25;3.42;;;2.00;;
77738;SDS011;66904;59.926;30.404;2023-03-14T18:53:27;4.70;;;2.05;;
77738;SDS011;66904;59.926;30.404;2023-03-14T18:58:31;3.08;;;1.70;;
77738;SDS011;66904;59.926;30.404;2023-03-14T19:03:32;2.88;;;2.20;;
77738;SDS011;66904;59.926;30.404;2023-03-14T19:08:34;3.45;;;2.15;;
77738;SDS011;66904;59.926;30.404;2023-03-14T19:13:36;4.50;;;2.13;;
77738;SDS011;66904;59.926;30.404;2023-03-14T19:18:38;3.90;;;2.10;;
77738;SDS011;66904;59.926;30.404;2023-03-14T19:23:40;3.53;;;2.20;;
77738;SDS011;66904;59.926;30.404;2023-03-14T19:28:42;4.32;;;2.85;;
77738;SDS011;66904;59.926;30.404;2023-03-14T19:33:43;3.58;;;1.92;;
77738;SDS011;66904;59.926;30.404;2023-03-14T19:38:43;4.47;;;2.80;;
77738;SDS011;66904;59.926;30.404;2023-03-14T19:43:44;3.67;;;2.42;;
77738;SDS011;66904;59.926;30.404;2023-03-14T19:48:44;3.13;;;2.43;;
77738;SDS011;66904;59.926;30.404;2023-03-14T19:53:45;3.13;;;2.03;;
77738;SDS011;66904;59.926;30.404;2023-03-14T19:58:45;3.87;;;2.63;;
77738;SDS011;66904;59.926;30.404;2023-03-14T20:03:46;4.95;;;2.67;;
77738;SDS011;66904;59.926;30.404;2023-03-14T20:08:46;4.78;;;2.55;;
77738;SDS011;66904;59.926;30.404;2023-03-14T20:13:47;4.22;;;2.30;;
77738;SDS011;66904;59.926;30.404;2023-03-14T20:18:47;4.20;;;2.30;;
77738;SDS011;66904;59.926;30.404;2023-03-14T20:23:48;4.03;;;2.20;;
77738;SDS011;66904;59.926;30.404;2023-03-14T20:28:48;3.65;;;2.00;;
77738;SDS011;66904;59.926;30.404;2023-03-14T20:33:49;3.00;;;1.67;;
77738;SDS011;66904;59.926;30.404;2023-03-14T20:38:49;2.80;;;1.77;;
77738;SDS011;66904;59.926;30.404;2023-03-14T20:43:51;3.75;;;1.92;;
77738;SDS011;66904;59.926;30.404;2023-03-14T20:48:52;3.22;;;1.73;;
77738;SDS011;66904;59.926;30.404;2023-03-14T20:53:53;2.88;;;1.98;;
77738;SDS011;66904;59.926;30.404;2023-03-14T20:58:53;3.00;;;1.92;;
77738;SDS011;66904;59.926;30.404;2023-03-14T21:03:54;3.10;;;1.27;;
77738;SDS011;66904;59.926;30.404;2023-03-14T21:08:54;1.90;;;1.30;;
77738;SDS011;66904;59.926;30.404;2023-03-14T21:13:54;2.08;;;1.42;;
77738;SDS011;66904;59.926;30.404;2023-03-14T21:18:55;3.03;;;1.63;;
77738;SDS011;66904;59.926;30.404;2023-03-14T21:23:56;1.98;;;1.20;;
77738;SDS011;66904;59.926;30.404;2023-03-14T21:28:57;5.03;;;1.20;;
77738;SDS011;66904;59.926;30.404;2023-03-14T21:33:58;1.88;;;1.10;;
77738;SDS011;66904;59.926;30.404;2023-03-14T21:38:59;1.85;;;1.10;;
77738;SDS011;66904;59.926;30.404;2023-03-14T21:44:00;1.67;;;1.08;;
77738;SDS011;66904;59.926;30.404;2023-03-14T21:49:01;2.50;;;1.50;;
77738;SDS011;66904;59.926;30.404;2023-03-14T21:54:02;2.25;;;1.20;;
77738;SDS011;66904;59.926;30.404;2023-03-14T21:59:11;1.85;;;0.82;;
77738;SDS011;66904;59.926;30.404;2023-03-14T22:04:13;1.58;;;0.90;;
77738;SDS011;66904;59.926;30.404;2023-03-14T22:09:14;1.58;;;1.05;;
77738;SDS011;66904;59.926;30.404;2023-03-14T22:14:14;2.10;;;0.95;;
77738;SDS011;66904;59.926;30.404;2023-03-14T22:19:14;1.53;;;0.70;;
77738;SDS011;66904;59.926;30.404;2023-03-14T22:24:15;1.80;;;1.30;;
77738;SDS011;66904;59.926;30.404;2023-03-14T22:29:15;1.35;;;0.70;;
77738;SDS011;66904;59.926;30.404;2023-03-14T22:34:16;1.05;;;0.73;;
77738;SDS011;66904;59.926;30.404;2023-03-14T22:39:17;1.83;;;0.80;;
77738;SDS011;66904;59.926;30.404;2023-03-14T22:44:18;1.10;;;0.55;;
77738;SDS011;66904;59.926;30.404;2023-03-14T22:49:18;1.60;;;0.80;;
77738;SDS011;66904;59.926;30.404;2023-03-14T22:54:19;1.30;;;0.73;;
77738;SDS011;66904;59.926;30.404;2023-03-14T22:59:19;1.33;;;0.52;;
77738;SDS011;66904;59.926;30.404;2023-03-14T23:04:26;1.65;;;0.95;;
77738;SDS011;66904;59.926;30.404;2023-03-14T23:15:16;1.85;;;1.10;;
77738;SDS011;66904;59.926;30.404;2023-03-14T23:20:17;1.58;;;1.02;;
77738;SDS011;66904;59.926;30.404;2023-03-14T23:25:23;1.08;;;0.50;;
77738;SDS011;66904;59.926;30.404;2023-03-14T23:30:23;0.88;;;0.45;;
77738;SDS011;66904;59.926;30.404;2023-03-14T23:35:24;0.88;;;0.40;;
77738;SDS011;66904;59.926;30.404;2023-03-14T23:40:24;2.25;;;0.55;;
77738;SDS011;66904;59.926;30.404;2023-03-14T23:51:27;1.05;;;0.57;;
77738;SDS011;66904;59.926;30.404;2023-03-14T23:56:27;0.93;;;0.40;;
